Time;durP1;ratioP1;P1;durP2;ratioP2;P2;SDS_P1;SDS_P2;PMS_P1;PMS_P2;Temp;Humidity;BMP_temperature;BMP_pressure;BME280_temperature;BME280_humidity;BME280_pressure;Samples;Min_cycle;Max_cycle;Signal;HPM_P1;HPM_P2
2022/10/16 00:02:22;;;;;;;3.58;2.25;;;16.10;99.90;;;;;;1927704;73;21062;-87
2022/10/16 00:05:13;;;;;;;3.45;1.90;;;16.10;99.90;;;;;;1922893;73;21601;-87
2022/10/16 00:08:05;;;;;;;6.75;2.37;;;16.10;99.90;;;;;;1917103;75;21066;-87
2022/10/16 00:11:01;;;;;;;4.53;2.08;;;16.10;99.90;;;;;;1917173;75;21145;-88
2022/10/16 00:13:55;;;;;;;3.60;2.17;;;16.10;99.90;;;;;;1929884;73;21160;-88
2022/10/16 00:16:46;;;;;;;3.37;1.90;;;16.10;99.90;;;;;;1943028;73;21212;-87
2022/10/16 00:19:38;;;;;;;3.77;2.00;;;16.10;99.90;;;;;;1916922;75;21053;-87
2022/10/16 00:22:29;;;;;;;4.15;2.10;;;16.00;99.90;;;;;;1937784;73;21132;-88
2022/10/16 00:25:20;;;;;;;4.05;1.70;;;16.00;99.90;;;;;;1935562;73;21075;-88
2022/10/16 00:28:12;;;;;;;4.92;2.25;;;15.90;99.90;;;;;;1927001;73;21087;-87
2022/10/16 00:31:06;;;;;;;2.87;1.90;;;15.90;99.90;;;;;;1946740;73;21127;-88
2022/10/16 00:33:58;;;;;;;4.70;2.50;;;15.80;99.90;;;;;;1917133;75;21117;-88
2022/10/16 00:36:49;;;;;;;4.12;2.52;;;15.80;99.90;;;;;;1917049;75;21055;-87
2022/10/16 00:42:24;;;;;;;3.17;2.00;;;15.80;99.90;;;;;;1949226;72;22226;-86
2022/10/16 00:45:17;;;;;;;4.37;1.87;;;15.70;99.90;;;;;;1906155;75;21062;-88
2022/10/16 00:48:13;;;;;;;3.65;2.05;;;15.50;99.90;;;;;;1900998;75;21128;-87
2022/10/16 00:51:04;;;;;;;3.77;1.90;;;15.50;99.90;;;;;;1896736;75;21161;-87
2022/10/16 00:53:57;;;;;;;4.40;1.67;;;15.50;99.90;;;;;;1895825;75;21065;-87
2022/10/16 00:56:50;;;;;;;3.08;1.82;;;15.40;99.90;;;;;;1916280;75;22452;-88
2022/10/16 00:59:43;;;;;;;2.00;1.60;;;15.40;99.90;;;;;;1884918;76;21511;-87
2022/10/16 01:05:15;;;;;;;2.55;1.52;;;15.30;99.90;;;;;;1952159;72;22785;-89
2022/10/16 01:08:11;;;;;;;3.20;1.55;;;15.20;99.90;;;;;;1894775;75;21608;-89
2022/10/16 01:11:05;;;;;;;4.55;1.77;;;15.20;99.90;;;;;;1875136;75;21022;-87
2022/10/16 01:13:59;;;;;;;3.35;2.10;;;15.10;99.90;;;;;;1888602;75;21091;-88
2022/10/16 01:16:56;;;;;;;2.08;1.60;;;15.10;99.90;;;;;;1896219;75;21169;-87
2022/10/16 01:22:48;;;;;;;6.33;2.10;;;15.00;99.90;;;;;;1952190;72;20259;-89
2022/10/16 01:26:21;;;;;;;3.35;1.72;;;15.00;99.90;;;;;;1917675;75;21054;-88
2022/10/16 01:29:16;;;;;;;6.45;1.80;;;14.90;99.90;;;;;;1905869;75;21055;-87
2022/10/16 01:32:12;;;;;;;7.50;1.87;;;15.00;99.90;;;;;;1917927;75;21123;-87
2022/10/16 01:35:07;;;;;;;6.03;2.52;;;14.90;99.90;;;;;;1917809;75;21117;-88
2022/10/16 01:38:04;;;;;;;3.42;1.87;;;14.90;99.90;;;;;;1932434;73;21576;-87
2022/10/16 01:40:59;;;;;;;6.50;3.22;;;14.90;99.90;;;;;;1918249;73;21164;-88
2022/10/16 01:43:53;;;;;;;4.65;2.90;;;14.90;99.90;;;;;;1924477;73;21047;-88
2022/10/16 01:46:47;;;;;;;3.87;2.85;;;14.90;99.90;;;;;;1917741;75;21117;-88
2022/10/16 01:49:41;;;;;;;6.45;2.50;;;14.70;99.90;;;;;;1917486;75;21076;-88
2022/10/16 01:52:35;;;;;;;4.87;2.60;;;14.70;99.90;;;;;;1917804;75;21054;-86
2022/10/16 01:58:12;;;;;;;7.15;2.80;;;14.60;99.90;;;;;;1976367;72;22229;-88
2022/10/16 02:01:05;;;;;;;4.72;2.70;;;14.60;99.90;;;;;;1917780;75;21387;-89
2022/10/16 02:04:00;;;;;;;4.15;2.70;;;14.60;99.90;;;;;;1918075;75;21084;-88
2022/10/16 02:06:53;;;;;;;5.33;2.62;;;14.60;99.90;;;;;;1917814;75;21547;-87
2022/10/16 02:09:45;;;;;;;5.10;2.37;;;14.50;99.90;;;;;;1917652;75;21059;-88
2022/10/16 02:12:39;;;;;;;4.37;2.42;;;14.50;99.90;;;;;;1918065;73;21051;-88
2022/10/16 02:15:30;;;;;;;4.10;2.70;;;14.50;99.90;;;;;;1917870;75;21132;-88
2022/10/16 02:18:22;;;;;;;2.72;2.27;;;14.50;99.90;;;;;;1917729;75;21065;-88
2022/10/16 02:21:17;;;;;;;3.58;2.47;;;14.60;99.90;;;;;;1917654;75;21079;-87
2022/10/16 02:24:15;;;;;;;4.20;2.58;;;14.60;99.90;;;;;;1917908;75;21071;-86
2022/10/16 02:27:12;;;;;;;6.60;2.27;;;14.60;99.90;;;;;;1935594;73;21115;-87
2022/10/16 02:30:08;;;;;;;3.95;2.42;;;14.60;99.90;;;;;;1917724;75;21172;-87
2022/10/16 02:33:01;;;;;;;4.37;2.40;;;14.70;99.90;;;;;;1917614;75;21055;-87
2022/10/16 02:35:54;;;;;;;3.50;2.22;;;14.70;99.90;;;;;;1922350;73;21103;-87
2022/10/16 02:38:46;;;;;;;3.08;1.82;;;14.50;99.90;;;;;;1929608;73;21067;-87
2022/10/16 02:41:38;;;;;;;2.72;1.92;;;14.50;99.90;;;;;;1934162;73;21123;-87
2022/10/16 02:44:30;;;;;;;4.47;2.05;;;14.30;99.90;;;;;;1918128;73;21083;-87
2022/10/16 02:47:25;;;;;;;2.80;1.92;;;14.30;99.90;;;;;;1917651;75;21110;-87
2022/10/16 02:50:17;;;;;;;5.03;2.22;;;14.20;99.90;;;;;;1917622;75;21173;-87
2022/10/16 02:53:09;;;;;;;3.02;2.10;;;14.10;99.90;;;;;;1917563;75;21124;-88
2022/10/16 02:56:00;;;;;;;3.72;2.12;;;14.20;99.90;;;;;;1917781;75;21123;-87
2022/10/16 02:58:52;;;;;;;2.90;2.30;;;14.30;99.90;;;;;;1910249;75;21124;-87
2022/10/16 03:01:43;;;;;;;5.35;2.20;;;14.30;99.90;;;;;;1917994;75;21060;-87
2022/10/16 03:04:35;;;;;;;3.90;2.10;;;14.30;99.90;;;;;;1917668;75;21145;-87
2022/10/16 03:07:26;;;;;;;2.62;1.87;;;14.30;99.90;;;;;;1918228;75;21073;-87
2022/10/16 03:10:18;;;;;;;4.87;1.90;;;14.40;99.90;;;;;;1917229;75;21087;-87
2022/10/16 03:13:10;;;;;;;4.45;2.10;;;14.40;99.90;;;;;;1897752;75;21102;-87
2022/10/16 03:16:01;;;;;;;3.95;1.60;;;14.40;99.90;;;;;;1905353;75;21170;-87
2022/10/16 03:18:53;;;;;;;4.83;1.90;;;14.40;99.90;;;;;;1919618;74;21541;-88
2022/10/16 03:21:44;;;;;;;5.97;1.72;;;14.40;99.90;;;;;;1915939;74;21035;-88
2022/10/16 03:24:38;;;;;;;3.80;1.82;;;14.50;99.90;;;;;;1922701;73;21176;-87
2022/10/16 03:27:30;;;;;;;3.47;1.70;;;14.50;99.90;;;;;;1916933;75;21944;-87
2022/10/16 03:30:21;;;;;;;3.27;1.60;;;14.60;99.90;;;;;;1917047;75;21063;-88
2022/10/16 03:33:13;;;;;;;5.28;1.57;;;14.60;99.90;;;;;;1916902;75;21061;-87
2022/10/16 03:36:05;;;;;;;4.70;1.80;;;14.60;99.90;;;;;;1903989;74;21061;-89
2022/10/16 03:38:56;;;;;;;3.42;1.65;;;14.60;99.90;;;;;;1917727;73;21133;-87
2022/10/16 03:41:47;;;;;;;7.85;1.67;;;14.60;99.90;;;;;;1917132;75;21183;-87
2022/10/16 03:44:39;;;;;;;6.40;1.87;;;14.60;99.90;;;;;;1904604;75;21535;-87
2022/10/16 03:47:32;;;;;;;3.40;1.75;;;14.50;99.90;;;;;;1925012;73;21036;-86
2022/10/16 03:50:24;;;;;;;5.30;2.20;;;14.50;99.90;;;;;;1925646;73;21212;-87
2022/10/16 03:53:15;;;;;;;4.35;2.33;;;14.50;99.90;;;;;;1904593;75;21152;-87
2022/10/16 03:56:08;;;;;;;2.98;1.92;;;14.50;99.90;;;;;;1904063;74;21133;-87
2022/10/16 03:58:59;;;;;;;2.42;1.85;;;14.50;99.90;;;;;;1944810;73;21121;-87
2022/10/16 04:01:51;;;;;;;5.67;1.87;;;14.60;99.90;;;;;;1880116;76;21251;-87
2022/10/16 04:04:42;;;;;;;4.20;2.00;;;14.60;99.90;;;;;;1917082;75;21144;-88
2022/10/16 04:07:34;;;;;;;4.35;1.70;;;14.60;99.90;;;;;;1917100;75;21056;-87
2022/10/16 04:10:25;;;;;;;3.95;1.85;;;14.70;99.90;;;;;;1917083;75;21054;-87
2022/10/16 04:13:17;;;;;;;6.03;1.98;;;14.70;99.90;;;;;;1917495;75;21580;-87
2022/10/16 04:16:08;;;;;;;2.58;1.60;;;14.70;99.90;;;;;;1917306;75;21620;-87
2022/10/16 04:19:00;;;;;;;3.72;1.90;;;14.60;99.90;;;;;;1917033;75;21162;-86
2022/10/16 04:21:51;;;;;;;4.53;2.10;;;14.60;99.90;;;;;;1929139;73;21063;-87
2022/10/16 04:24:42;;;;;;;3.35;1.60;;;14.60;99.90;;;;;;1921810;73;21169;-87
2022/10/16 04:27:34;;;;;;;3.65;1.40;;;14.60;99.90;;;;;;1917054;75;21043;-87
2022/10/16 04:30:26;;;;;;;4.25;1.60;;;14.50;99.90;;;;;;1898359;75;21172;-88
2022/10/16 04:33:19;;;;;;;5.25;2.25;;;14.40;99.90;;;;;;1916919;75;21118;-87
2022/10/16 04:36:11;;;;;;;2.72;1.50;;;14.30;99.90;;;;;;1925184;73;21518;-87
2022/10/16 04:39:02;;;;;;;5.65;2.00;;;14.30;99.90;;;;;;1924182;73;21204;-87
2022/10/16 04:41:54;;;;;;;6.03;1.55;;;14.30;99.90;;;;;;1927186;73;21056;-89
2022/10/16 04:44:46;;;;;;;2.20;1.40;;;14.40;99.90;;;;;;1934369;73;21047;-87
2022/10/16 04:47:37;;;;;;;2.52;1.55;;;14.40;99.90;;;;;;1919327;73;21150;-87
2022/10/16 04:50:29;;;;;;;2.98;1.65;;;14.30;99.90;;;;;;1880097;76;21067;-88
2022/10/16 04:53:29;;;;;;;2.83;2.00;;;14.30;99.90;;;;;;1917137;75;21122;-88
2022/10/16 04:56:21;;;;;;;6.17;2.58;;;14.20;99.90;;;;;;1925126;74;21055;-88
2022/10/16 04:59:13;;;;;;;5.78;1.62;;;14.20;99.90;;;;;;1913753;75;21122;-88
2022/10/16 05:02:04;;;;;;;3.27;1.70;;;14.10;99.90;;;;;;1916864;75;21043;-87
2022/10/16 05:04:56;;;;;;;2.52;1.80;;;14.10;99.90;;;;;;1905948;74;21176;-89
2022/10/16 05:07:49;;;;;;;3.40;1.67;;;14.10;99.90;;;;;;1904584;75;21200;-89
2022/10/16 05:10:42;;;;;;;2.90;1.70;;;14.10;99.90;;;;;;1932436;73;21108;-89
2022/10/16 05:13:33;;;;;;;4.70;1.90;;;14.10;99.90;;;;;;1931693;73;21179;-88
2022/10/16 05:16:25;;;;;;;3.15;1.55;;;14.10;99.90;;;;;;1904981;75;21165;-87
2022/10/16 05:19:16;;;;;;;5.67;1.92;;;14.00;99.90;;;;;;1904724;75;21505;-88
2022/10/16 05:22:09;;;;;;;3.33;1.60;;;14.10;99.90;;;;;;1933039;73;21113;-87
2022/10/16 05:25:00;;;;;;;3.55;1.92;;;14.10;99.90;;;;;;1905615;74;21104;-87
2022/10/16 05:27:52;;;;;;;3.75;1.70;;;14.10;99.90;;;;;;1909369;74;21174;-87
2022/10/16 05:30:45;;;;;;;4.40;2.10;;;14.10;99.90;;;;;;1928424;73;21680;-87
2022/10/16 05:33:37;;;;;;;3.12;2.05;;;14.10;99.90;;;;;;1904452;75;21130;-88
2022/10/16 05:36:29;;;;;;;2.62;1.50;;;14.00;99.90;;;;;;1904519;75;21075;-88
2022/10/16 05:39:21;;;;;;;7.53;1.50;;;14.00;99.90;;;;;;1904272;75;21183;-88
2022/10/16 05:42:12;;;;;;;3.77;1.50;;;14.00;99.90;;;;;;1904431;75;21141;-88
2022/10/16 05:45:03;;;;;;;5.75;1.40;;;13.90;99.90;;;;;;1904653;75;21119;-88
2022/10/16 05:47:55;;;;;;;3.30;1.95;;;13.90;99.90;;;;;;1904536;75;21107;-87
2022/10/16 05:50:48;;;;;;;6.80;5.58;;;13.90;99.90;;;;;;1917307;75;21613;-87
2022/10/16 05:53:40;;;;;;;11.28;8.35;;;13.90;99.90;;;;;;1904611;75;21195;-89
2022/10/16 05:56:32;;;;;;;9.38;7.67;;;13.90;99.90;;;;;;1916940;75;21062;-87
2022/10/16 05:59:23;;;;;;;9.38;8.58;;;13.90;99.90;;;;;;1919491;74;21130;-87
2022/10/16 06:02:16;;;;;;;9.58;7.92;;;13.90;99.90;;;;;;1906616;74;21108;-86
2022/10/16 06:05:08;;;;;;;6.17;5.58;;;14.00;99.90;;;;;;1908807;74;21078;-87
2022/10/16 06:08:00;;;;;;;9.15;4.90;;;14.00;99.90;;;;;;1929646;73;21125;-87
2022/10/16 06:11:01;;;;;;;5.12;3.70;;;13.90;99.90;;;;;;1904921;75;21572;-88
2022/10/16 06:13:56;;;;;;;4.15;3.30;;;13.90;99.90;;;;;;1904604;75;21637;-87
2022/10/16 06:16:47;;;;;;;3.92;3.15;;;13.90;99.90;;;;;;1904534;75;21119;-88
2022/10/16 06:19:39;;;;;;;4.03;3.10;;;13.90;99.90;;;;;;1904351;75;21100;-87
2022/10/16 06:22:31;;;;;;;3.10;2.75;;;13.90;99.90;;;;;;1916890;75;21071;-87
2022/10/16 06:25:22;;;;;;;4.53;3.20;;;13.80;99.90;;;;;;1917090;75;21047;-87
2022/10/16 06:28:19;;;;;;;4.25;3.30;;;13.80;99.90;;;;;;1917260;75;21131;-88
2022/10/16 06:31:11;;;;;;;4.40;2.95;;;13.80;99.90;;;;;;1919370;75;21144;-88
2022/10/16 06:34:05;;;;;;;6.17;2.42;;;13.80;99.90;;;;;;1917800;75;21085;-87
2022/10/16 06:36:56;;;;;;;5.12;2.42;;;13.80;99.90;;;;;;1925082;73;21098;-87
2022/10/16 06:39:48;;;;;;;4.22;2.35;;;13.80;99.90;;;;;;1917095;75;21099;-87
2022/10/16 06:42:39;;;;;;;5.08;2.80;;;13.80;99.90;;;;;;1916868;75;21164;-86
2022/10/16 06:45:31;;;;;;;5.72;2.52;;;13.90;99.90;;;;;;1916930;75;21090;-87
2022/10/16 06:48:23;;;;;;;8.73;3.77;;;13.90;99.90;;;;;;1904668;75;21592;-87
2022/10/16 06:51:16;;;;;;;4.10;2.77;;;13.90;99.90;;;;;;1904784;75;21201;-88
2022/10/16 06:54:09;;;;;;;4.28;2.08;;;14.00;99.90;;;;;;1904808;75;21148;-87
2022/10/16 06:57:01;;;;;;;3.00;1.85;;;14.10;99.90;;;;;;1904610;75;21143;-87
2022/10/16 06:59:52;;;;;;;7.28;2.00;;;14.20;99.90;;;;;;1904547;75;21514;-88
2022/10/16 07:02:45;;;;;;;4.87;2.10;;;14.20;99.90;;;;;;1923055;74;21070;-87
2022/10/16 07:05:40;;;;;;;5.75;2.02;;;14.30;99.90;;;;;;1841717;76;21097;-88
2022/10/16 07:08:34;;;;;;;4.50;1.80;;;14.40;99.90;;;;;;1912117;73;21202;-87
2022/10/16 07:11:25;;;;;;;2.25;1.37;;;14.40;99.90;;;;;;1926001;74;21522;-87
2022/10/16 07:14:19;;;;;;;3.55;1.60;;;14.40;99.90;;;;;;1870303;76;21126;-94
2022/10/16 07:17:12;;;;;;;3.27;1.40;;;14.40;99.90;;;;;;1875765;75;21063;-90
2022/10/16 07:20:04;;;;;;;5.00;2.10;;;14.50;99.90;;;;;;1919232;74;21148;-88
2022/10/16 07:22:56;;;;;;;2.50;1.62;;;14.60;99.90;;;;;;1924194;74;21451;-89
2022/10/16 07:25:49;;;;;;;6.42;1.70;;;14.60;99.90;;;;;;1902800;75;21157;-89
2022/10/16 07:28:40;;;;;;;2.70;1.60;;;14.60;99.90;;;;;;1902951;75;21166;-89
2022/10/16 07:31:32;;;;;;;4.50;1.42;;;14.70;99.90;;;;;;1902864;74;21108;-89
2022/10/16 07:34:26;;;;;;;1.70;1.27;;;14.70;99.90;;;;;;1921172;73;21179;-88
2022/10/16 07:37:18;;;;;;;2.20;1.40;;;14.70;99.90;;;;;;1918030;74;21067;-88
2022/10/16 07:40:11;;;;;;;2.02;1.25;;;14.80;99.90;;;;;;1907894;74;21128;-88
2022/10/16 08:16:00;;;;;;;2.98;1.30;;;15.50;99.90;;;;;;2085294;68;22265;-89
2022/10/16 08:18:52;;;;;;;2.75;1.22;;;15.60;99.90;;;;;;2017784;69;21046;-89
2022/10/16 08:21:43;;;;;;;1.55;1.27;;;15.70;99.90;;;;;;2001763;70;21126;-89
2022/10/16 08:24:34;;;;;;;2.90;1.15;;;15.80;99.90;;;;;;1998857;72;21041;-89
2022/10/16 08:27:26;;;;;;;2.75;1.75;;;16.00;99.90;;;;;;1998839;72;21034;-89
2022/10/16 08:30:20;;;;;;;5.03;1.70;;;16.10;99.90;;;;;;2017240;70;21027;-78
2022/10/16 08:33:12;;;;;;;3.87;1.42;;;16.20;99.90;;;;;;2011424;70;21174;-79
2022/10/16 08:36:04;;;;;;;5.17;2.00;;;16.30;99.90;;;;;;2010460;70;21547;-79
2022/10/16 08:38:56;;;;;;;6.22;2.05;;;16.40;99.90;;;;;;2009385;70;21559;-80
2022/10/16 08:42:18;;;;;;;1.85;1.40;;;16.60;99.90;;;;;;2019509;70;21015;-80
2022/10/16 08:45:18;;;;;;;2.10;1.77;;;16.60;99.90;;;;;;2021546;70;21027;-80
2022/10/16 08:48:18;;;;;;;3.25;1.37;;;16.70;99.90;;;;;;1998427;72;21068;-80
2022/10/16 08:51:13;;;;;;;2.85;1.22;;;16.80;99.90;;;;;;2014367;70;21085;-80
2022/10/16 08:54:08;;;;;;;3.08;1.15;;;16.90;99.90;;;;;;2024895;70;21035;-80
2022/10/16 08:57:03;;;;;;;3.30;1.15;;;17.00;99.90;;;;;;2023665;70;21071;-81
2022/10/16 08:59:59;;;;;;;3.17;0.95;;;17.10;99.90;;;;;;1998458;70;21106;-81
2022/10/16 09:02:52;;;;;;;1.40;1.00;;;17.20;99.90;;;;;;1998466;70;21117;-80
2022/10/16 09:05:57;;;;;;;1.90;0.90;;;17.30;99.90;;;;;;1998718;72;21090;-80
2022/10/16 09:09:03;;;;;;;4.67;1.40;;;17.40;99.90;;;;;;2011297;70;21487;-80
2022/10/16 09:11:59;;;;;;;3.90;1.10;;;17.50;99.90;;;;;;1865832;77;21115;-79
2022/10/16 09:14:59;;;;;;;1.35;0.90;;;17.70;99.90;;;;;;1863699;77;21227;-80
2022/10/16 09:17:56;;;;;;;2.77;0.93;;;17.70;99.90;;;;;;1863585;77;21093;-80
2022/10/16 09:23:32;;;;;;;4.60;1.32;;;17.90;99.90;;;;;;1963545;72;22672;-80
2022/10/16 09:26:23;;;;;;;2.80;1.00;;;17.90;99.90;;;;;;1917766;75;21064;-79
2022/10/16 09:29:15;;;;;;;5.35;1.52;;;18.00;99.90;;;;;;1940314;73;21050;-79
2022/10/16 09:32:13;;;;;;;3.85;1.10;;;18.00;99.90;;;;;;1917206;75;21195;-79
2022/10/16 09:35:04;;;;;;;1.70;1.00;;;18.10;99.90;;;;;;1932389;73;22151;-80
2022/10/16 09:37:57;;;;;;;2.83;1.00;;;18.10;99.90;;;;;;1918794;73;21114;-78
2022/10/16 09:40:48;;;;;;;1.45;0.90;;;18.20;99.90;;;;;;1940064;73;21051;-78
2022/10/16 09:43:44;;;;;;;1.37;1.05;;;18.20;99.90;;;;;;1917620;75;21564;-79
2022/10/16 09:46:37;;;;;;;3.60;1.20;;;18.40;99.90;;;;;;1917308;75;21585;-79
2022/10/16 09:49:29;;;;;;;2.80;1.30;;;18.50;99.90;;;;;;1917442;75;21129;-78
2022/10/16 09:52:21;;;;;;;2.35;1.20;;;18.60;99.90;;;;;;1917587;75;21118;-78
2022/10/16 09:55:18;;;;;;;2.52;1.25;;;18.70;99.90;;;;;;1917580;75;21592;-89
2022/10/16 09:58:15;;;;;;;2.85;1.12;;;18.80;99.90;;;;;;1917500;75;21108;-84
2022/10/16 10:01:08;;;;;;;7.25;1.55;;;18.90;99.90;;;;;;1917416;75;21167;-81
2022/10/16 10:04:02;;;;;;;5.75;1.27;;;18.90;99.90;;;;;;1917102;75;21051;-82
2022/10/16 10:06:55;;;;;;;2.83;1.30;;;19.00;99.90;;;;;;1917800;75;21163;-81
2022/10/16 10:09:48;;;;;;;4.97;1.47;;;19.10;99.90;;;;;;1917331;75;21109;-79
2022/10/16 10:12:39;;;;;;;2.67;1.40;;;19.20;99.90;;;;;;1917401;75;21123;-78
2022/10/16 10:15:33;;;;;;;4.62;1.35;;;19.30;99.90;;;;;;1917385;75;21119;-79
2022/10/16 10:18:26;;;;;;;5.53;1.40;;;19.40;99.90;;;;;;1917307;73;21635;-78
2022/10/16 10:21:18;;;;;;;3.92;1.37;;;19.40;99.90;;;;;;1917309;75;21093;-78
2022/10/16 10:24:13;;;;;;;3.75;1.25;;;19.60;99.90;;;;;;1925896;74;21631;-77
2022/10/16 10:27:08;;;;;;;2.70;1.17;;;19.60;99.90;;;;;;1927228;74;21054;-76
2022/10/16 10:30:02;;;;;;;2.45;1.20;;;19.70;99.90;;;;;;1926966;74;21056;-77
2022/10/16 10:33:00;;;;;;;4.15;1.60;;;19.80;99.90;;;;;;1925584;73;21125;-79
2022/10/16 10:38:42;;;;;;;3.40;1.27;;;20.00;99.90;;;;;;1954863;72;22146;-81
2022/10/16 10:42:29;;;;;;;2.35;1.30;;;20.10;99.90;;;;;;1901623;75;21134;-81
2022/10/16 10:45:26;;;;;;;3.33;1.20;;;20.20;99.90;;;;;;1920152;74;21233;-79
2022/10/16 10:48:27;;;;;;;3.90;1.22;;;20.30;99.90;;;;;;1902443;75;21163;-83
2022/10/16 10:51:22;;;;;;;4.35;1.40;;;20.40;99.90;;;;;;1884803;76;21491;-83
2022/10/16 10:54:18;;;;;;;1.67;1.30;;;20.50;99.90;;;;;;1917209;75;21164;-82
2022/10/16 10:57:13;;;;;;;1.67;1.00;;;20.70;99.90;;;;;;1895022;75;21204;-82
2022/10/16 11:00:19;;;;;;;2.00;0.90;;;20.80;99.90;;;;;;1894850;75;21117;-82
2022/10/16 11:03:15;;;;;;;1.50;1.02;;;20.90;99.90;;;;;;1933640;73;21051;-82
2022/10/16 11:06:10;;;;;;;3.50;1.20;;;21.10;99.90;;;;;;1894602;75;21242;-82
2022/10/16 11:09:05;;;;;;;2.72;1.02;;;21.30;99.90;;;;;;1890891;73;21099;-83
2022/10/16 11:11:59;;;;;;;2.75;1.00;;;21.30;99.90;;;;;;1906925;75;21055;-84
2022/10/16 11:17:38;;;;;;;1.90;0.90;;;21.80;99.90;;;;;;1954619;72;22542;-81
2022/10/16 11:20:32;;;;;;;2.58;1.00;;;22.00;99.90;;;;;;1898144;75;21121;-82
2022/10/16 11:23:27;;;;;;;3.00;1.10;;;22.20;99.90;;;;;;1885187;75;21087;-81
2022/10/16 11:26:21;;;;;;;1.35;0.90;;;22.50;99.90;;;;;;1906312;75;21636;-81
2022/10/16 11:29:16;;;;;;;5.83;1.40;;;22.90;99.90;;;;;;1906660;75;21102;-81
2022/10/16 11:32:11;;;;;;;2.25;1.10;;;23.10;99.90;;;;;;1884534;76;21120;-82
2022/10/16 11:35:06;;;;;;;4.55;1.15;;;23.30;99.90;;;;;;1898893;75;21059;-83
2022/10/16 11:38:00;;;;;;;4.00;1.30;;;23.50;99.90;;;;;;1894789;75;21136;-84
2022/10/16 11:40:54;;;;;;;3.27;1.20;;;23.80;99.90;;;;;;1891909;75;21622;-82
2022/10/16 11:43:49;;;;;;;2.50;1.20;;;24.00;99.90;;;;;;1905471;75;21216;-85
2022/10/16 11:46:43;;;;;;;2.10;1.07;;;24.20;99.90;;;;;;1883272;75;21171;-86
2022/10/16 11:49:38;;;;;;;1.42;0.90;;;24.30;99.90;;;;;;1897518;75;21122;-80
2022/10/16 11:52:35;;;;;;;2.55;1.10;;;24.50;99.90;;;;;;1909367;75;21538;-80
2022/10/16 11:55:31;;;;;;;2.75;1.37;;;24.60;99.90;;;;;;1906598;75;21155;-82
2022/10/16 11:58:30;;;;;;;1.90;1.10;;;24.80;99.90;;;;;;1906193;75;21209;-82
2022/10/16 12:01:27;;;;;;;1.45;1.10;;;24.90;99.90;;;;;;1903146;75;21059;-81
2022/10/16 12:07:05;;;;;;;2.58;1.10;;;25.00;99.90;;;;;;1912950;72;22230;-82
2022/10/16 12:10:00;;;;;;;3.27;1.35;;;24.90;99.90;;;;;;1897446;75;21050;-80
2022/10/16 12:15:31;;;;;;;3.15;1.47;;;25.20;99.90;;;;;;1945992;72;22193;-78
2022/10/16 12:18:24;;;;;;;2.08;1.00;;;25.40;99.90;;;;;;1904038;74;21132;-78
2022/10/16 12:21:18;;;;;;;1.77;1.10;;;25.50;99.90;;;;;;1903097;74;21165;-77
2022/10/16 12:24:25;;;;;;;2.25;0.75;;;25.60;99.90;;;;;;1913669;75;21124;-78
2022/10/16 12:30:05;;;;;;;2.22;1.10;;;25.70;99.90;;;;;;1946683;72;22729;-77
2022/10/16 12:32:58;;;;;;;2.52;1.35;;;25.70;99.90;;;;;;1920839;73;21114;-77
2022/10/16 12:35:50;;;;;;;1.52;0.65;;;25.70;99.90;;;;;;1916722;75;21039;-77
2022/10/16 12:38:48;;;;;;;2.33;0.90;;;25.60;99.90;;;;;;1930091;73;21131;-77
2022/10/16 12:41:39;;;;;;;2.20;0.72;;;25.70;99.90;;;;;;1915423;75;21113;-77
2022/10/16 12:44:36;;;;;;;2.87;0.98;;;25.80;99.90;;;;;;1916936;73;21071;-77
2022/10/16 12:47:37;;;;;;;1.47;0.88;;;25.90;99.90;;;;;;1943463;73;21104;-77
2022/10/16 12:50:33;;;;;;;1.37;1.00;;;25.80;99.90;;;;;;1942399;73;21154;-77
2022/10/16 12:56:07;;;;;;;1.98;0.78;;;26.00;99.90;;;;;;1952253;72;22325;-78
2022/10/16 12:59:05;;;;;;;3.77;0.90;;;26.10;99.90;;;;;;1928072;73;21074;-78
2022/10/16 13:04:59;;;;;;;3.60;2.33;;;26.20;99.90;;;;;;1931458;72;22149;-75
2022/10/16 13:07:56;;;;;;;2.17;1.90;;;26.20;99.90;;;;;;1930256;73;21097;-81
2022/10/16 13:10:54;;;;;;;3.33;1.65;;;26.20;99.90;;;;;;1935278;73;21114;-80
2022/10/16 13:14:13;;;;;;;4.45;2.20;;;26.30;99.90;;;;;;1919965;73;21125;-81
2022/10/16 13:19:47;;;;;;;3.17;0.95;;;26.30;99.90;;;;;;1941862;72;22259;-82
2022/10/16 13:22:42;;;;;;;1.30;1.10;;;26.30;99.90;;;;;;1889630;75;21121;-82
2022/10/16 13:25:39;;;;;;;0.93;0.80;;;26.30;99.90;;;;;;1913823;75;21600;-81
2022/10/16 13:28:34;;;;;;;2.67;1.00;;;26.40;99.90;;;;;;1864908;75;21161;-81
2022/10/16 13:31:26;;;;;;;1.98;0.72;;;26.40;99.90;;;;;;1904347;75;21145;-81
2022/10/16 13:34:21;;;;;;;1.42;1.00;;;26.40;99.70;;;;;;1898157;75;21154;-81
2022/10/16 13:40:14;;;;;;;0.85;0.70;;;26.50;98.80;;;;;;1961612;72;22729;-80
2022/10/16 13:43:05;;;;;;;2.08;0.93;;;26.60;98.00;;;;;;1901108;75;21506;-81
2022/10/16 13:48:39;;;;;;;1.95;0.95;;;26.60;97.90;;;;;;1933436;72;22578;-80
2022/10/16 13:51:31;;;;;;;1.82;1.20;;;26.60;97.10;;;;;;1901687;75;21173;-80
2022/10/16 13:54:22;;;;;;;2.00;1.27;;;26.60;96.80;;;;;;1898101;75;21094;-81
2022/10/16 13:57:16;;;;;;;5.53;2.27;;;26.60;97.10;;;;;;1889679;75;21126;-81
2022/10/16 14:00:22;;;;;;;2.37;1.22;;;26.60;96.60;;;;;;1903162;75;21046;-81
2022/10/16 14:03:17;;;;;;;2.55;1.30;;;26.70;96.40;;;;;;1904373;74;21088;-82
2022/10/16 14:06:15;;;;;;;1.42;0.70;;;26.60;96.40;;;;;;1881456;75;21569;-82
2022/10/16 14:09:09;;;;;;;1.52;0.75;;;26.50;96.30;;;;;;1887358;75;21102;-81
2022/10/16 14:12:04;;;;;;;3.08;0.90;;;26.50;96.10;;;;;;1897002;75;21465;-81
2022/10/16 14:14:57;;;;;;;3.15;0.80;;;26.70;96.10;;;;;;1907845;75;21510;-81
2022/10/16 14:17:51;;;;;;;2.40;0.70;;;26.80;95.60;;;;;;1895410;75;21224;-81
2022/10/16 14:20:42;;;;;;;0.85;0.60;;;27.60;94.20;;;;;;1891933;74;21091;-82
2022/10/16 14:23:37;;;;;;;1.75;0.70;;;27.50;93.80;;;;;;1906006;73;21125;-82
2022/10/16 14:26:30;;;;;;;1.35;0.70;;;27.20;94.10;;;;;;1902838;75;21158;-81
2022/10/16 14:29:22;;;;;;;1.10;0.70;;;27.00;94.10;;;;;;1901675;74;21128;-81
2022/10/16 14:32:25;;;;;;;0.93;0.60;;;26.80;94.00;;;;;;1889349;75;21152;-82
2022/10/16 14:35:27;;;;;;;1.92;0.72;;;26.90;94.00;;;;;;1898371;75;21518;-81
2022/10/16 14:41:00;;;;;;;2.52;0.85;;;26.70;93.80;;;;;;1932323;72;22154;-81
2022/10/16 14:43:53;;;;;;;1.52;0.70;;;26.70;93.90;;;;;;1917778;73;21103;-81
2022/10/16 14:46:46;;;;;;;1.60;0.82;;;26.60;94.10;;;;;;1897028;73;21580;-81
2022/10/16 14:49:37;;;;;;;1.05;0.70;;;26.70;94.40;;;;;;1901362;75;21187;-81
2022/10/16 14:52:29;;;;;;;2.55;0.85;;;26.60;94.20;;;;;;1887957;75;21203;-80
2022/10/16 14:55:20;;;;;;;1.45;0.88;;;26.60;94.10;;;;;;1902015;74;21663;-75
2022/10/16 14:58:16;;;;;;;2.15;0.60;;;26.60;94.00;;;;;;1908830;74;21099;-79
2022/10/16 15:01:08;;;;;;;2.70;0.70;;;26.50;94.00;;;;;;1910713;73;21124;-79
2022/10/16 15:06:38;;;;;;;3.05;0.88;;;26.40;94.20;;;;;;1937294;72;22129;-79
2022/10/16 15:12:07;;;;;;;1.50;0.78;;;26.30;94.10;;;;;;1950215;72;22166;-79
2022/10/16 15:14:59;;;;;;;2.15;0.98;;;26.30;94.00;;;;;;1917092;75;21101;-79
2022/10/16 15:17:52;;;;;;;3.00;0.80;;;26.30;93.70;;;;;;1916813;73;21074;-79
2022/10/16 15:20:43;;;;;;;2.35;0.80;;;26.30;93.80;;;;;;1917147;75;21050;-79
2022/10/16 15:23:35;;;;;;;2.77;0.90;;;26.40;93.80;;;;;;1921743;73;21123;-79
2022/10/16 15:26:27;;;;;;;2.52;0.70;;;26.50;93.70;;;;;;1917346;75;21119;-79
2022/10/16 15:29:18;;;;;;;1.98;0.88;;;26.60;93.50;;;;;;1928357;73;21087;-79
2022/10/16 15:32:11;;;;;;;2.72;0.80;;;27.00;92.70;;;;;;1915713;73;21250;-79
2022/10/16 15:35:03;;;;;;;2.08;0.75;;;28.90;91.30;;;;;;1926535;73;21141;-80
2022/10/16 15:37:55;;;;;;;2.35;0.85;;;30.30;90.10;;;;;;1926710;73;21054;-80
2022/10/16 15:40:48;;;;;;;2.00;0.70;;;31.30;84.90;;;;;;1924854;73;21102;-79
2022/10/16 15:43:39;;;;;;;1.90;0.80;;;31.70;82.70;;;;;;1921860;73;21142;-75
2022/10/16 15:49:14;;;;;;;2.05;0.80;;;31.20;79.80;;;;;;1932016;72;22481;-81
2022/10/16 15:52:06;;;;;;;3.17;1.00;;;31.00;80.00;;;;;;1895500;73;21080;-81
2022/10/16 15:54:59;;;;;;;2.20;0.82;;;31.00;78.60;;;;;;1900248;73;21114;-80
2022/10/16 15:57:50;;;;;;;2.10;1.10;;;30.40;78.50;;;;;;1899046;73;21055;-80
2022/10/16 16:00:42;;;;;;;1.30;0.98;;;29.40;80.40;;;;;;1885131;74;21131;-80
2022/10/16 16:03:35;;;;;;;2.47;1.02;;;28.30;82.30;;;;;;1891801;73;21101;-80
2022/10/16 16:06:28;;;;;;;5.78;1.02;;;27.40;83.60;;;;;;1884736;75;21089;-80
2022/10/16 16:09:19;;;;;;;5.42;1.32;;;26.80;85.70;;;;;;1914515;73;21572;-80
2022/10/16 16:14:51;;;;;;;3.77;1.07;;;26.10;88.10;;;;;;1929493;72;22150;-80
2022/10/16 16:20:20;;;;;;;1.92;0.98;;;25.60;90.00;;;;;;1938939;72;22196;-83
2022/10/16 16:26:06;;;;;;;2.12;1.15;;;25.30;90.70;;;;;;1938510;72;22167;-81
2022/10/16 16:28:57;;;;;;;1.20;0.93;;;25.30;91.00;;;;;;1873733;75;21098;-81
2022/10/16 16:31:49;;;;;;;2.08;1.00;;;25.20;91.10;;;;;;1876907;75;21137;-81
2022/10/16 16:34:40;;;;;;;3.65;1.00;;;25.10;91.50;;;;;;1900569;75;21095;-81
2022/10/16 16:37:31;;;;;;;2.45;1.00;;;24.90;91.90;;;;;;1891670;75;21079;-81
2022/10/16 16:40:23;;;;;;;2.70;1.10;;;24.70;92.20;;;;;;1886761;75;21102;-81